sensor_id;sensor_type;location;lat;lon;timestamp;P1;durP1;ratioP1;P2;durP2;ratioP2
21233;SDS011;10774;42.178;26.578;2023-03-03T00:00:37;25.88;;;16.05;;
21233;SDS011;10774;42.178;26.578;2023-03-03T00:03:03;21.75;;;15.70;;
21233;SDS011;10774;42.178;26.578;2023-03-03T00:05:31;22.00;;;14.35;;
21233;SDS011;10774;42.178;26.578;2023-03-03T00:08:00;22.80;;;16.30;;
21233;SDS011;10774;42.178;26.578;2023-03-03T00:10:27;21.23;;;15.60;;
21233;SDS011;10774;42.178;26.578;2023-03-03T00:12:52;20.92;;;15.05;;
21233;SDS011;10774;42.178;26.578;2023-03-03T00:15:22;22.08;;;15.43;;
21233;SDS011;10774;42.178;26.578;2023-03-03T00:17:49;27.35;;;16.27;;
21233;SDS011;10774;42.178;26.578;2023-03-03T00:22:59;22.10;;;15.75;;
21233;SDS011;10774;42.178;26.578;2023-03-03T00:25:50;21.90;;;16.13;;
21233;SDS011;10774;42.178;26.578;2023-03-03T00:30:59;24.55;;;17.58;;
21233;SDS011;10774;42.178;26.578;2023-03-03T00:33:32;26.15;;;16.95;;
21233;SDS011;10774;42.178;26.578;2023-03-03T00:38:53;28.30;;;17.95;;
21233;SDS011;10774;42.178;26.578;2023-03-03T00:41:21;27.48;;;17.38;;
21233;SDS011;10774;42.178;26.578;2023-03-03T00:43:49;20.77;;;15.40;;
21233;SDS011;10774;42.178;26.578;2023-03-03T00:46:16;27.42;;;16.63;;
21233;SDS011;10774;42.178;26.578;2023-03-03T00:48:44;24.77;;;17.77;;
21233;SDS011;10774;42.178;26.578;2023-03-03T00:53:47;24.52;;;17.50;;
21233;SDS011;10774;42.178;26.578;2023-03-03T00:56:13;24.70;;;17.90;;
21233;SDS011;10774;42.178;26.578;2023-03-03T00:58:39;27.20;;;19.23;;
21233;SDS011;10774;42.178;26.578;2023-03-03T01:03:48;24.38;;;18.13;;
21233;SDS011;10774;42.178;26.578;2023-03-03T01:06:15;29.48;;;18.13;;
21233;SDS011;10774;42.178;26.578;2023-03-03T01:08:40;20.73;;;15.13;;
21233;SDS011;10774;42.178;26.578;2023-03-03T01:11:14;22.55;;;15.68;;
21233;SDS011;10774;42.178;26.578;2023-03-03T01:13:44;102.28;;;75.65;;
21233;SDS011;10774;42.178;26.578;2023-03-03T01:16:12;25.67;;;18.75;;
21233;SDS011;10774;42.178;26.578;2023-03-03T01:18:38;25.95;;;17.95;;
21233;SDS011;10774;42.178;26.578;2023-03-03T01:21:05;26.05;;;17.15;;
21233;SDS011;10774;42.178;26.578;2023-03-03T01:23:32;23.27;;;15.73;;
21233;SDS011;10774;42.178;26.578;2023-03-03T01:25:58;26.50;;;16.13;;
21233;SDS011;10774;42.178;26.578;2023-03-03T01:28:23;27.60;;;16.90;;
21233;SDS011;10774;42.178;26.578;2023-03-03T01:30:49;23.75;;;16.40;;
21233;SDS011;10774;42.178;26.578;2023-03-03T01:33:15;25.60;;;16.95;;
21233;SDS011;10774;42.178;26.578;2023-03-03T01:35:44;26.38;;;18.10;;
21233;SDS011;10774;42.178;26.578;2023-03-03T01:38:11;22.92;;;16.90;;
21233;SDS011;10774;42.178;26.578;2023-03-03T01:40:37;25.45;;;16.50;;
21233;SDS011;10774;42.178;26.578;2023-03-03T01:43:02;20.98;;;14.82;;
21233;SDS011;10774;42.178;26.578;2023-03-03T01:45:29;24.13;;;15.02;;
21233;SDS011;10774;42.178;26.578;2023-03-03T01:50:48;24.10;;;16.60;;
21233;SDS011;10774;42.178;26.578;2023-03-03T01:53:17;20.73;;;15.65;;
21233;SDS011;10774;42.178;26.578;2023-03-03T01:55:48;19.02;;;13.43;;
21233;SDS011;10774;42.178;26.578;2023-03-03T01:58:21;18.73;;;13.10;;
21233;SDS011;10774;42.178;26.578;2023-03-03T02:00:52;19.23;;;13.52;;
21233;SDS011;10774;42.178;26.578;2023-03-03T02:03:23;19.60;;;13.02;;
21233;SDS011;10774;42.178;26.578;2023-03-03T02:05:49;16.92;;;12.63;;
21233;SDS011;10774;42.178;26.578;2023-03-03T02:08:19;16.83;;;12.50;;
21233;SDS011;10774;42.178;26.578;2023-03-03T02:10:47;20.13;;;13.93;;
21233;SDS011;10774;42.178;26.578;2023-03-03T02:13:14;22.20;;;14.15;;
21233;SDS011;10774;42.178;26.578;2023-03-03T02:15:39;24.63;;;13.75;;
21233;SDS011;10774;42.178;26.578;2023-03-03T02:18:06;22.33;;;13.80;;
21233;SDS011;10774;42.178;26.578;2023-03-03T02:23:07;18.33;;;13.63;;
21233;SDS011;10774;42.178;26.578;2023-03-03T02:25:47;17.17;;;12.80;;
21233;SDS011;10774;42.178;26.578;2023-03-03T02:28:27;20.58;;;13.60;;
21233;SDS011;10774;42.178;26.578;2023-03-03T02:30:56;17.98;;;12.10;;
21233;SDS011;10774;42.178;26.578;2023-03-03T02:33:23;17.05;;;11.93;;
21233;SDS011;10774;42.178;26.578;2023-03-03T02:35:49;20.90;;;13.13;;
21233;SDS011;10774;42.178;26.578;2023-03-03T02:38:26;14.32;;;11.50;;
21233;SDS011;10774;42.178;26.578;2023-03-03T02:41:03;17.65;;;12.30;;
21233;SDS011;10774;42.178;26.578;2023-03-03T02:43:47;17.02;;;12.23;;
21233;SDS011;10774;42.178;26.578;2023-03-03T02:46:16;14.95;;;11.77;;
21233;SDS011;10774;42.178;26.578;2023-03-03T02:48:41;19.17;;;13.00;;
21233;SDS011;10774;42.178;26.578;2023-03-03T02:51:07;19.77;;;14.00;;
21233;SDS011;10774;42.178;26.578;2023-03-03T02:53:32;18.75;;;14.48;;
21233;SDS011;10774;42.178;26.578;2023-03-03T02:55:57;19.35;;;12.75;;
21233;SDS011;10774;42.178;26.578;2023-03-03T02:58:23;18.23;;;12.30;;
21233;SDS011;10774;42.178;26.578;2023-03-03T03:00:48;20.52;;;12.73;;
21233;SDS011;10774;42.178;26.578;2023-03-03T03:03:14;17.73;;;12.52;;
21233;SDS011;10774;42.178;26.578;2023-03-03T03:05:39;21.75;;;12.75;;
21233;SDS011;10774;42.178;26.578;2023-03-03T03:08:05;16.80;;;11.70;;
21233;SDS011;10774;42.178;26.578;2023-03-03T03:10:30;16.10;;;12.77;;
21233;SDS011;10774;42.178;26.578;2023-03-03T03:12:56;28.77;;;17.05;;
21233;SDS011;10774;42.178;26.578;2023-03-03T03:15:21;23.00;;;16.45;;
21233;SDS011;10774;42.178;26.578;2023-03-03T03:17:47;24.58;;;16.00;;
21233;SDS011;10774;42.178;26.578;2023-03-03T03:20:12;22.58;;;14.35;;
21233;SDS011;10774;42.178;26.578;2023-03-03T03:22:38;17.85;;;13.35;;
21233;SDS011;10774;42.178;26.578;2023-03-03T03:25:03;17.70;;;14.00;;
21233;SDS011;10774;42.178;26.578;2023-03-03T03:27:29;18.90;;;12.65;;
21233;SDS011;10774;42.178;26.578;2023-03-03T03:29:54;22.52;;;13.07;;
21233;SDS011;10774;42.178;26.578;2023-03-03T03:32:20;16.75;;;12.77;;
21233;SDS011;10774;42.178;26.578;2023-03-03T03:34:45;36.35;;;21.83;;
21233;SDS011;10774;42.178;26.578;2023-03-03T03:37:10;45.78;;;29.38;;
21233;SDS011;10774;42.178;26.578;2023-03-03T03:39:36;35.80;;;23.15;;
21233;SDS011;10774;42.178;26.578;2023-03-03T03:42:01;20.17;;;14.07;;
21233;SDS011;10774;42.178;26.578;2023-03-03T03:44:27;17.35;;;12.63;;
21233;SDS011;10774;42.178;26.578;2023-03-03T03:46:52;66.15;;;48.60;;
21233;SDS011;10774;42.178;26.578;2023-03-03T03:49:18;31.13;;;24.83;;
21233;SDS011;10774;42.178;26.578;2023-03-03T03:51:43;22.65;;;16.00;;
21233;SDS011;10774;42.178;26.578;2023-03-03T03:54:08;20.88;;;14.60;;
21233;SDS011;10774;42.178;26.578;2023-03-03T03:56:34;20.05;;;14.98;;
21233;SDS011;10774;42.178;26.578;2023-03-03T03:58:59;19.20;;;13.98;;
21233;SDS011;10774;42.178;26.578;2023-03-03T04:01:25;20.33;;;13.70;;
21233;SDS011;10774;42.178;26.578;2023-03-03T04:03:50;19.42;;;13.65;;
21233;SDS011;10774;42.178;26.578;2023-03-03T04:06:16;27.73;;;17.45;;
21233;SDS011;10774;42.178;26.578;2023-03-03T04:08:41;22.20;;;15.93;;
21233;SDS011;10774;42.178;26.578;2023-03-03T04:11:07;20.02;;;13.93;;
21233;SDS011;10774;42.178;26.578;2023-03-03T04:13:32;19.17;;;12.60;;
21233;SDS011;10774;42.178;26.578;2023-03-03T04:15:59;18.25;;;13.88;;
21233;SDS011;10774;42.178;26.578;2023-03-03T04:18:25;18.70;;;13.93;;
21233;SDS011;10774;42.178;26.578;2023-03-03T04:20:51;21.52;;;16.65;;
21233;SDS011;10774;42.178;26.578;2023-03-03T04:23:18;24.50;;;17.67;;
21233;SDS011;10774;42.178;26.578;2023-03-03T04:25:47;23.55;;;17.98;;
21233;SDS011;10774;42.178;26.578;2023-03-03T04:28:16;20.15;;;16.27;;
21233;SDS011;10774;42.178;26.578;2023-03-03T04:30:42;21.73;;;15.13;;
21233;SDS011;10774;42.178;26.578;2023-03-03T04:33:08;24.33;;;17.20;;
21233;SDS011;10774;42.178;26.578;2023-03-03T04:35:34;29.80;;;20.60;;
21233;SDS011;10774;42.178;26.578;2023-03-03T04:37:59;47.20;;;29.30;;
21233;SDS011;10774;42.178;26.578;2023-03-03T04:40:25;40.85;;;24.88;;
21233;SDS011;10774;42.178;26.578;2023-03-03T04:42:51;32.35;;;20.95;;
21233;SDS011;10774;42.178;26.578;2023-03-03T04:45:17;25.75;;;14.95;;
21233;SDS011;10774;42.178;26.578;2023-03-03T04:47:43;26.83;;;16.45;;
21233;SDS011;10774;42.178;26.578;2023-03-03T04:50:08;31.40;;;18.02;;
21233;SDS011;10774;42.178;26.578;2023-03-03T04:52:35;50.50;;;31.90;;
21233;SDS011;10774;42.178;26.578;2023-03-03T04:55:00;45.72;;;27.08;;
21233;SDS011;10774;42.178;26.578;2023-03-03T04:57:26;38.08;;;21.35;;
21233;SDS011;10774;42.178;26.578;2023-03-03T04:59:51;33.08;;;21.60;;
21233;SDS011;10774;42.178;26.578;2023-03-03T05:02:16;32.42;;;20.90;;
21233;SDS011;10774;42.178;26.578;2023-03-03T05:04:42;28.92;;;19.05;;
21233;SDS011;10774;42.178;26.578;2023-03-03T05:07:08;31.50;;;19.55;;
21233;SDS011;10774;42.178;26.578;2023-03-03T05:09:34;39.60;;;24.17;;
21233;SDS011;10774;42.178;26.578;2023-03-03T05:11:59;29.63;;;18.80;;
21233;SDS011;10774;42.178;26.578;2023-03-03T05:14:25;22.45;;;16.40;;
21233;SDS011;10774;42.178;26.578;2023-03-03T05:16:51;23.15;;;16.60;;
21233;SDS011;10774;42.178;26.578;2023-03-03T05:19:17;17.80;;;13.50;;
21233;SDS011;10774;42.178;26.578;2023-03-03T05:21:43;16.95;;;13.52;;
21233;SDS011;10774;42.178;26.578;2023-03-03T05:24:09;18.05;;;14.77;;
21233;SDS011;10774;42.178;26.578;2023-03-03T05:26:35;17.98;;;14.68;;
21233;SDS011;10774;42.178;26.578;2023-03-03T05:29:01;22.67;;;16.15;;
21233;SDS011;10774;42.178;26.578;2023-03-03T05:31:26;21.23;;;16.65;;
21233;SDS011;10774;42.178;26.578;2023-03-03T05:33:52;20.00;;;14.18;;
21233;SDS011;10774;42.178;26.578;2023-03-03T05:36:18;22.13;;;13.15;;
21233;SDS011;10774;42.178;26.578;2023-03-03T05:38:43;19.05;;;14.60;;
21233;SDS011;10774;42.178;26.578;2023-03-03T05:41:09;22.30;;;16.88;;
21233;SDS011;10774;42.178;26.578;2023-03-03T05:43:34;28.35;;;20.77;;
21233;SDS011;10774;42.178;26.578;2023-03-03T05:46:00;119.68;;;58.10;;
21233;SDS011;10774;42.178;26.578;2023-03-03T05:48:25;162.68;;;84.47;;
21233;SDS011;10774;42.178;26.578;2023-03-03T05:50:51;160.50;;;74.88;;
21233;SDS011;10774;42.178;26.578;2023-03-03T05:53:17;202.70;;;87.45;;
21233;SDS011;10774;42.178;26.578;2023-03-03T05:55:42;171.07;;;77.97;;
21233;SDS011;10774;42.178;26.578;2023-03-03T05:58:08;120.32;;;55.60;;
21233;SDS011;10774;42.178;26.578;2023-03-03T06:00:33;65.35;;;38.17;;
21233;SDS011;10774;42.178;26.578;2023-03-03T06:02:59;54.40;;;31.40;;
21233;SDS011;10774;42.178;26.578;2023-03-03T06:05:24;74.53;;;51.75;;
21233;SDS011;10774;42.178;26.578;2023-03-03T06:07:50;107.03;;;72.60;;
21233;SDS011;10774;42.178;26.578;2023-03-03T06:10:15;36.38;;;28.58;;
21233;SDS011;10774;42.178;26.578;2023-03-03T06:12:41;31.65;;;22.85;;
21233;SDS011;10774;42.178;26.578;2023-03-03T06:15:07;21.88;;;15.27;;
21233;SDS011;10774;42.178;26.578;2023-03-03T06:17:32;17.35;;;12.00;;
21233;SDS011;10774;42.178;26.578;2023-03-03T06:19:58;19.08;;;12.63;;
21233;SDS011;10774;42.178;26.578;2023-03-03T06:22:23;28.50;;;16.70;;
21233;SDS011;10774;42.178;26.578;2023-03-03T06:24:49;22.40;;;14.85;;
21233;SDS011;10774;42.178;26.578;2023-03-03T06:27:16;21.55;;;14.82;;
21233;SDS011;10774;42.178;26.578;2023-03-03T06:29:42;18.35;;;14.68;;
21233;SDS011;10774;42.178;26.578;2023-03-03T06:32:07;20.50;;;12.15;;
21233;SDS011;10774;42.178;26.578;2023-03-03T06:34:33;18.67;;;10.88;;
21233;SDS011;10774;42.178;26.578;2023-03-03T06:36:58;19.25;;;13.38;;
21233;SDS011;10774;42.178;26.578;2023-03-03T06:39:24;26.67;;;14.02;;
21233;SDS011;10774;42.178;26.578;2023-03-03T06:41:50;28.27;;;19.65;;
21233;SDS011;10774;42.178;26.578;2023-03-03T06:44:15;81.30;;;54.38;;
21233;SDS011;10774;42.178;26.578;2023-03-03T06:46:41;31.58;;;24.40;;
21233;SDS011;10774;42.178;26.578;2023-03-03T06:49:06;20.95;;;15.68;;
21233;SDS011;10774;42.178;26.578;2023-03-03T06:51:36;18.15;;;12.80;;
21233;SDS011;10774;42.178;26.578;2023-03-03T06:54:10;15.68;;;9.07;;
21233;SDS011;10774;42.178;26.578;2023-03-03T06:56:43;25.05;;;14.60;;
21233;SDS011;10774;42.178;26.578;2023-03-03T06:59:11;24.70;;;16.95;;
21233;SDS011;10774;42.178;26.578;2023-03-03T07:01:39;28.27;;;19.52;;
21233;SDS011;10774;42.178;26.578;2023-03-03T07:04:16;19.33;;;12.60;;
21233;SDS011;10774;42.178;26.578;2023-03-03T07:07:14;17.52;;;9.95;;
21233;SDS011;10774;42.178;26.578;2023-03-03T07:09:46;21.38;;;12.40;;
21233;SDS011;10774;42.178;26.578;2023-03-03T07:12:34;39.15;;;22.30;;
21233;SDS011;10774;42.178;26.578;2023-03-03T07:15:15;39.67;;;21.40;;
21233;SDS011;10774;42.178;26.578;2023-03-03T07:17:59;28.95;;;17.70;;
21233;SDS011;10774;42.178;26.578;2023-03-03T07:22:59;23.48;;;15.07;;
21233;SDS011;10774;42.178;26.578;2023-03-03T07:25:33;18.65;;;12.90;;
21233;SDS011;10774;42.178;26.578;2023-03-03T07:28:18;27.30;;;18.33;;
21233;SDS011;10774;42.178;26.578;2023-03-03T07:30:50;22.60;;;14.45;;
21233;SDS011;10774;42.178;26.578;2023-03-03T07:35:53;34.22;;;21.90;;
21233;SDS011;10774;42.178;26.578;2023-03-03T07:40:56;12.27;;;9.43;;
21233;SDS011;10774;42.178;26.578;2023-03-03T07:43:37;11.38;;;6.90;;
21233;SDS011;10774;42.178;26.578;2023-03-03T07:48:40;24.80;;;14.55;;
21233;SDS011;10774;42.178;26.578;2023-03-03T07:51:22;18.85;;;9.43;;
21233;SDS011;10774;42.178;26.578;2023-03-03T07:59:50;16.48;;;6.97;;
21233;SDS011;10774;42.178;26.578;2023-03-03T08:08:00;13.73;;;7.13;;
21233;SDS011;10774;42.178;26.578;2023-03-03T08:13:21;13.57;;;8.98;;
21233;SDS011;10774;42.178;26.578;2023-03-03T08:16:26;11.10;;;7.22;;
21233;SDS011;10774;42.178;26.578;2023-03-03T08:18:54;15.55;;;8.88;;
21233;SDS011;10774;42.178;26.578;2023-03-03T08:21:25;13.48;;;7.53;;
21233;SDS011;10774;42.178;26.578;2023-03-03T08:23:51;9.80;;;7.13;;
21233;SDS011;10774;42.178;26.578;2023-03-03T08:26:18;11.02;;;5.90;;
21233;SDS011;10774;42.178;26.578;2023-03-03T08:28:44;12.73;;;7.93;;
21233;SDS011;10774;42.178;26.578;2023-03-03T08:31:10;17.42;;;9.43;;
21233;SDS011;10774;42.178;26.578;2023-03-03T08:33:36;17.50;;;8.75;;
21233;SDS011;10774;42.178;26.578;2023-03-03T08:36:02;13.98;;;9.25;;
21233;SDS011;10774;42.178;26.578;2023-03-03T08:38:28;10.48;;;6.90;;
21233;SDS011;10774;42.178;26.578;2023-03-03T08:40:53;20.23;;;11.30;;
21233;SDS011;10774;42.178;26.578;2023-03-03T08:43:19;10.30;;;7.53;;
21233;SDS011;10774;42.178;26.578;2023-03-03T08:45:46;9.27;;;6.00;;
21233;SDS011;10774;42.178;26.578;2023-03-03T08:48:13;13.25;;;7.25;;
21233;SDS011;10774;42.178;26.578;2023-03-03T08:50:39;11.98;;;6.32;;
21233;SDS011;10774;42.178;26.578;2023-03-03T08:53:05;8.25;;;5.60;;
21233;SDS011;10774;42.178;26.578;2023-03-03T08:55:32;12.15;;;5.60;;
21233;SDS011;10774;42.178;26.578;2023-03-03T08:57:58;9.73;;;5.28;;
21233;SDS011;10774;42.178;26.578;2023-03-03T09:00:23;11.63;;;7.55;;
21233;SDS011;10774;42.178;26.578;2023-03-03T09:02:50;13.25;;;5.95;;
21233;SDS011;10774;42.178;26.578;2023-03-03T09:05:17;9.55;;;7.32;;
21233;SDS011;10774;42.178;26.578;2023-03-03T09:07:44;5.68;;;3.58;;
21233;SDS011;10774;42.178;26.578;2023-03-03T09:10:12;9.77;;;5.20;;
21233;SDS011;10774;42.178;26.578;2023-03-03T09:12:43;7.22;;;4.78;;
21233;SDS011;10774;42.178;26.578;2023-03-03T09:17:44;5.60;;;4.28;;
21233;SDS011;10774;42.178;26.578;2023-03-03T09:25:51;13.60;;;8.27;;
21233;SDS011;10774;42.178;26.578;2023-03-03T09:30:59;8.15;;;5.32;;
21233;SDS011;10774;42.178;26.578;2023-03-03T09:33:27;20.10;;;14.93;;
21233;SDS011;10774;42.178;26.578;2023-03-03T09:36:26;18.45;;;10.40;;
21233;SDS011;10774;42.178;26.578;2023-03-03T09:38:53;12.75;;;9.05;;
21233;SDS011;10774;42.178;26.578;2023-03-03T09:41:36;11.73;;;7.43;;
21233;SDS011;10774;42.178;26.578;2023-03-03T10:00:54;24.10;;;14.15;;
21233;SDS011;10774;42.178;26.578;2023-03-03T10:05:58;11.57;;;6.82;;
21233;SDS011;10774;42.178;26.578;2023-03-03T10:08:49;14.82;;;7.55;;
21233;SDS011;10774;42.178;26.578;2023-03-03T10:17:51;17.30;;;11.77;;
21233;SDS011;10774;42.178;26.578;2023-03-03T10:20:36;22.65;;;17.30;;
21233;SDS011;10774;42.178;26.578;2023-03-03T10:23:14;13.50;;;9.93;;
21233;SDS011;10774;42.178;26.578;2023-03-03T10:36:59;5.55;;;3.85;;
21233;SDS011;10774;42.178;26.578;2023-03-03T10:39:48;18.80;;;9.85;;
21233;SDS011;10774;42.178;26.578;2023-03-03T10:53:31;10.80;;;7.20;;
21233;SDS011;10774;42.178;26.578;2023-03-03T11:01:49;7.40;;;3.55;;
21233;SDS011;10774;42.178;26.578;2023-03-03T11:07:20;5.15;;;2.75;;
21233;SDS011;10774;42.178;26.578;2023-03-03T11:12:40;10.80;;;5.18;;
21233;SDS011;10774;42.178;26.578;2023-03-03T11:23:51;5.07;;;2.53;;
21233;SDS011;10774;42.178;26.578;2023-03-03T11:32:04;11.70;;;6.60;;
21233;SDS011;10774;42.178;26.578;2023-03-03T11:34:46;31.02;;;15.25;;
21233;SDS011;10774;42.178;26.578;2023-03-03T11:37:32;20.40;;;10.88;;
21233;SDS011;10774;42.178;26.578;2023-03-03T11:40:09;19.58;;;11.05;;
21233;SDS011;10774;42.178;26.578;2023-03-03T11:42:46;37.47;;;21.20;;
21233;SDS011;10774;42.178;26.578;2023-03-03T11:45:30;19.30;;;8.70;;
21233;SDS011;10774;42.178;26.578;2023-03-03T11:53:28;26.70;;;16.00;;
21233;SDS011;10774;42.178;26.578;2023-03-03T11:58:47;7.75;;;6.05;;
21233;SDS011;10774;42.178;26.578;2023-03-03T12:03:55;9.13;;;6.05;;
21233;SDS011;10774;42.178;26.578;2023-03-03T12:06:24;4.88;;;3.97;;
21233;SDS011;10774;42.178;26.578;2023-03-03T12:11:31;6.38;;;3.70;;
21233;SDS011;10774;42.178;26.578;2023-03-03T12:17:00;8.90;;;5.72;;
21233;SDS011;10774;42.178;26.578;2023-03-03T12:19:41;5.68;;;4.38;;
21233;SDS011;10774;42.178;26.578;2023-03-03T12:25:22;4.45;;;3.28;;
21233;SDS011;10774;42.178;26.578;2023-03-03T12:30:42;4.30;;;3.28;;
21233;SDS011;10774;42.178;26.578;2023-03-03T12:33:22;10.80;;;6.15;;
21233;SDS011;10774;42.178;26.578;2023-03-03T12:47:39;32.03;;;19.00;;
21233;SDS011;10774;42.178;26.578;2023-03-03T12:52:45;35.97;;;18.38;;
21233;SDS011;10774;42.178;26.578;2023-03-03T12:57:46;12.40;;;7.00;;
21233;SDS011;10774;42.178;26.578;2023-03-03T13:08:48;10.63;;;5.72;;
21233;SDS011;10774;42.178;26.578;2023-03-03T13:13:53;7.82;;;5.03;;
21233;SDS011;10774;42.178;26.578;2023-03-03T13:16:28;6.32;;;4.15;;
21233;SDS011;10774;42.178;26.578;2023-03-03T13:19:13;11.02;;;5.47;;
21233;SDS011;10774;42.178;26.578;2023-03-03T13:27:06;10.75;;;7.22;;
21233;SDS011;10774;42.178;26.578;2023-03-03T13:29:58;9.30;;;6.03;;
21233;SDS011;10774;42.178;26.578;2023-03-03T13:32:56;8.55;;;5.22;;
21233;SDS011;10774;42.178;26.578;2023-03-03T13:35:46;10.02;;;6.40;;
21233;SDS011;10774;42.178;26.578;2023-03-03T13:46:07;8.00;;;5.93;;
21233;SDS011;10774;42.178;26.578;2023-03-03T13:48:45;23.17;;;15.20;;
21233;SDS011;10774;42.178;26.578;2023-03-03T13:51:22;16.92;;;11.30;;
21233;SDS011;10774;42.178;26.578;2023-03-03T13:54:26;17.42;;;10.73;;
21233;SDS011;10774;42.178;26.578;2023-03-03T13:59:47;7.78;;;5.30;;
21233;SDS011;10774;42.178;26.578;2023-03-03T14:10:30;12.80;;;8.35;;
21233;SDS011;10774;42.178;26.578;2023-03-03T14:15:33;8.80;;;7.50;;
21233;SDS011;10774;42.178;26.578;2023-03-03T14:20:51;17.73;;;10.80;;
21233;SDS011;10774;42.178;26.578;2023-03-03T14:23:24;20.48;;;12.23;;
21233;SDS011;10774;42.178;26.578;2023-03-03T14:28:37;32.72;;;16.52;;
21233;SDS011;10774;42.178;26.578;2023-03-03T14:34:33;19.98;;;11.90;;
21233;SDS011;10774;42.178;26.578;2023-03-03T14:36:35;12.85;;;8.25;;
21233;SDS011;10774;42.178;26.578;2023-03-03T14:39:46;21.50;;;14.52;;
21233;SDS011;10774;42.178;26.578;2023-03-03T14:41:55;9.50;;;7.60;;
21233;SDS011;10774;42.178;26.578;2023-03-03T15:09:20;8.45;;;6.88;;
21233;SDS011;10774;42.178;26.578;2023-03-03T15:11:57;22.23;;;15.40;;
21233;SDS011;10774;42.178;26.578;2023-03-03T15:16:56;17.23;;;12.45;;
21233;SDS011;10774;42.178;26.578;2023-03-03T15:22:45;20.42;;;13.43;;
21233;SDS011;10774;42.178;26.578;2023-03-03T15:36:09;20.05;;;12.77;;
21233;SDS011;10774;42.178;26.578;2023-03-03T15:38:42;23.05;;;15.75;;
21233;SDS011;10774;42.178;26.578;2023-03-03T16:03:55;27.67;;;18.85;;
21233;SDS011;10774;42.178;26.578;2023-03-03T16:06:36;27.35;;;17.48;;
21233;SDS011;10774;42.178;26.578;2023-03-03T16:36:56;26.92;;;18.05;;
21233;SDS011;10774;42.178;26.578;2023-03-03T16:42:30;45.97;;;25.27;;
21233;SDS011;10774;42.178;26.578;2023-03-03T16:50:37;38.08;;;26.25;;
21233;SDS011;10774;42.178;26.578;2023-03-03T16:53:45;51.88;;;31.05;;
21233;SDS011;10774;42.178;26.578;2023-03-03T16:59:02;27.17;;;17.08;;
21233;SDS011;10774;42.178;26.578;2023-03-03T17:04:30;27.95;;;17.92;;
21233;SDS011;10774;42.178;26.578;2023-03-03T17:07:11;26.98;;;19.30;;
21233;SDS011;10774;42.178;26.578;2023-03-03T17:27:08;42.97;;;26.92;;
21233;SDS011;10774;42.178;26.578;2023-03-03T17:29:41;35.83;;;22.60;;
21233;SDS011;10774;42.178;26.578;2023-03-03T17:43:30;22.05;;;16.10;;
21233;SDS011;10774;42.178;26.578;2023-03-03T17:45:58;35.75;;;17.02;;
21233;SDS011;10774;42.178;26.578;2023-03-03T17:54:38;31.35;;;20.98;;
21233;SDS011;10774;42.178;26.578;2023-03-03T17:59:34;24.95;;;17.65;;
21233;SDS011;10774;42.178;26.578;2023-03-03T18:07:43;25.50;;;16.10;;
21233;SDS011;10774;42.178;26.578;2023-03-03T18:10:30;23.15;;;16.42;;
21233;SDS011;10774;42.178;26.578;2023-03-03T18:13:08;24.58;;;18.40;;
21233;SDS011;10774;42.178;26.578;2023-03-03T18:24:25;30.75;;;23.33;;
21233;SDS011;10774;42.178;26.578;2023-03-03T18:26:54;29.10;;;19.75;;
21233;SDS011;10774;42.178;26.578;2023-03-03T18:29:24;19.05;;;14.90;;
21233;SDS011;10774;42.178;26.578;2023-03-03T18:36:55;18.10;;;13.45;;
21233;SDS011;10774;42.178;26.578;2023-03-03T18:42:38;23.98;;;15.77;;
21233;SDS011;10774;42.178;26.578;2023-03-03T18:50:42;18.02;;;14.00;;
21233;SDS011;10774;42.178;26.578;2023-03-03T18:53:14;19.42;;;13.73;;
21233;SDS011;10774;42.178;26.578;2023-03-03T18:55:42;14.90;;;11.85;;
21233;SDS011;10774;42.178;26.578;2023-03-03T19:03:24;12.45;;;8.40;;
21233;SDS011;10774;42.178;26.578;2023-03-03T19:05:56;15.23;;;9.95;;
21233;SDS011;10774;42.178;26.578;2023-03-03T19:08:25;13.98;;;10.52;;
21233;SDS011;10774;42.178;26.578;2023-03-03T19:10:54;14.98;;;10.05;;
21233;SDS011;10774;42.178;26.578;2023-03-03T19:13:39;13.85;;;8.77;;
21233;SDS011;10774;42.178;26.578;2023-03-03T19:18:57;9.80;;;8.57;;
21233;SDS011;10774;42.178;26.578;2023-03-03T19:21:31;13.77;;;9.57;;
21233;SDS011;10774;42.178;26.578;2023-03-03T19:29:04;10.85;;;7.70;;
21233;SDS011;10774;42.178;26.578;2023-03-03T19:34:56;10.38;;;7.88;;
21233;SDS011;10774;42.178;26.578;2023-03-03T19:40:36;15.00;;;11.05;;
21233;SDS011;10774;42.178;26.578;2023-03-03T19:54:11;12.55;;;6.05;;
21233;SDS011;10774;42.178;26.578;2023-03-03T19:56:52;9.07;;;5.82;;
21233;SDS011;10774;42.178;26.578;2023-03-03T20:07:30;8.80;;;7.40;;
21233;SDS011;10774;42.178;26.578;2023-03-03T20:27:16;14.32;;;10.80;;
21233;SDS011;10774;42.178;26.578;2023-03-03T20:35:28;14.88;;;11.27;;
21233;SDS011;10774;42.178;26.578;2023-03-03T20:49:38;14.20;;;10.60;;
21233;SDS011;10774;42.178;26.578;2023-03-03T21:06:05;32.95;;;21.95;;
21233;SDS011;10774;42.178;26.578;2023-03-03T21:11:19;33.80;;;23.45;;
21233;SDS011;10774;42.178;26.578;2023-03-03T21:13:46;33.13;;;21.23;;
21233;SDS011;10774;42.178;26.578;2023-03-03T21:21:38;19.77;;;12.02;;
21233;SDS011;10774;42.178;26.578;2023-03-03T21:24:09;15.73;;;12.10;;
21233;SDS011;10774;42.178;26.578;2023-03-03T21:29:24;9.20;;;7.35;;
21233;SDS011;10774;42.178;26.578;2023-03-03T21:31:53;11.70;;;9.30;;
21233;SDS011;10774;42.178;26.578;2023-03-03T21:34:36;18.90;;;12.60;;
21233;SDS011;10774;42.178;26.578;2023-03-03T21:39:35;10.95;;;7.50;;
21233;SDS011;10774;42.178;26.578;2023-03-03T21:44:38;10.10;;;6.88;;
21233;SDS011;10774;42.178;26.578;2023-03-03T21:47:07;8.88;;;6.13;;
21233;SDS011;10774;42.178;26.578;2023-03-03T21:49:34;11.32;;;5.88;;
21233;SDS011;10774;42.178;26.578;2023-03-03T21:52:00;11.18;;;6.60;;
21233;SDS011;10774;42.178;26.578;2023-03-03T21:54:25;19.58;;;8.85;;
21233;SDS011;10774;42.178;26.578;2023-03-03T21:56:51;11.55;;;7.88;;
21233;SDS011;10774;42.178;26.578;2023-03-03T21:59:17;17.38;;;10.80;;
21233;SDS011;10774;42.178;26.578;2023-03-03T22:01:43;14.23;;;9.70;;
21233;SDS011;10774;42.178;26.578;2023-03-03T22:04:09;13.57;;;9.77;;
21233;SDS011;10774;42.178;26.578;2023-03-03T22:06:34;24.40;;;11.52;;
21233;SDS011;10774;42.178;26.578;2023-03-03T22:09:04;16.65;;;11.75;;
21233;SDS011;10774;42.178;26.578;2023-03-03T22:11:30;20.42;;;13.48;;
21233;SDS011;10774;42.178;26.578;2023-03-03T22:13:56;20.90;;;13.13;;
21233;SDS011;10774;42.178;26.578;2023-03-03T22:16:21;19.48;;;12.88;;
21233;SDS011;10774;42.178;26.578;2023-03-03T22:18:47;18.70;;;12.40;;
21233;SDS011;10774;42.178;26.578;2023-03-03T22:21:12;20.10;;;12.50;;
21233;SDS011;10774;42.178;26.578;2023-03-03T22:23:38;20.80;;;13.05;;
21233;SDS011;10774;42.178;26.578;2023-03-03T22:26:03;18.65;;;13.98;;
21233;SDS011;10774;42.178;26.578;2023-03-03T22:28:29;38.28;;;20.35;;
21233;SDS011;10774;42.178;26.578;2023-03-03T22:30:54;30.58;;;17.58;;
21233;SDS011;10774;42.178;26.578;2023-03-03T22:33:20;30.90;;;18.58;;
21233;SDS011;10774;42.178;26.578;2023-03-03T22:35:46;58.45;;;28.95;;
21233;SDS011;10774;42.178;26.578;2023-03-03T22:38:12;26.65;;;16.92;;